Time;durP1;ratioP1;P1;durP2;ratioP2;P2;SDS_P1;SDS_P2;PMS_P1;PMS_P2;Temp;Humidity;BMP_temperature;BMP_pressure;BME280_temperature;BME280_humidity;BME280_pressure;Samples;Min_cycle;Max_cycle;Signal;HPM_P1;HPM_P2
2022/05/23 00:01:46;;;;;;;14.20;7.70;;;27.50;99.90;;;;;;4142902;28;20042;-68
2022/05/23 00:03:50;;;;;;;15.63;8.27;;;27.50;99.90;;;;;;4142740;28;20046;-68
2022/05/23 00:05:55;;;;;;;14.93;7.93;;;27.50;99.90;;;;;;4142462;28;20121;-68
2022/05/23 00:08:00;;;;;;;12.63;7.50;;;27.60;99.90;;;;;;4155947;28;20535;-68
2022/05/23 00:10:06;;;;;;;16.65;7.85;;;27.60;99.90;;;;;;4158166;28;20053;-68
2022/05/23 00:12:11;;;;;;;11.23;6.97;;;27.60;99.90;;;;;;4158170;28;20049;-68
2022/05/23 00:14:16;;;;;;;17.13;8.65;;;27.70;99.90;;;;;;4153239;28;20046;-68
2022/05/23 00:16:23;;;;;;;18.83;8.95;;;27.80;99.90;;;;;;4142980;28;20076;-68
2022/05/23 00:18:28;;;;;;;14.18;8.32;;;27.80;99.90;;;;;;4158658;28;20053;-67
2022/05/23 00:20:33;;;;;;;14.32;7.93;;;27.80;99.90;;;;;;4158254;28;20224;-68
2022/05/23 00:22:38;;;;;;;13.18;8.18;;;27.90;99.90;;;;;;4156562;28;20072;-68
2022/05/23 00:24:42;;;;;;;17.40;7.40;;;27.90;99.90;;;;;;4158519;28;20061;-68
2022/05/23 00:26:47;;;;;;;14.35;7.80;;;28.00;99.90;;;;;;4152559;28;20057;-68
2022/05/23 00:28:51;;;;;;;13.18;7.25;;;28.00;99.90;;;;;;4136068;28;20106;-68
2022/05/23 00:30:56;;;;;;;12.48;7.15;;;28.00;99.90;;;;;;4138683;28;20081;-68
2022/05/23 00:35:20;;;;;;;13.18;6.78;;;28.20;99.90;;;;;;4151918;28;20453;-67
2022/05/23 00:37:27;;;;;;;15.32;6.85;;;28.20;99.90;;;;;;4145888;28;20480;-68
2022/05/23 00:39:32;;;;;;;15.52;7.18;;;28.20;99.90;;;;;;4157082;28;20137;-68
2022/05/23 00:44:02;;;;;;;10.95;6.28;;;28.20;99.90;;;;;;4154915;28;20065;-68
2022/05/23 00:46:07;;;;;;;13.57;6.75;;;28.30;99.90;;;;;;4137699;28;20054;-68
2022/05/23 00:48:12;;;;;;;15.15;7.10;;;28.40;99.90;;;;;;4145905;28;20068;-67
2022/05/23 00:50:17;;;;;;;12.05;6.75;;;28.50;99.90;;;;;;4152534;28;20050;-68
2022/05/23 00:52:36;;;;;;;13.40;7.07;;;28.50;99.90;;;;;;4141696;28;20050;-68
2022/05/23 00:54:42;;;;;;;16.90;6.95;;;28.50;99.90;;;;;;4124963;28;20046;-69
2022/05/23 00:56:49;;;;;;;12.02;7.32;;;28.50;99.90;;;;;;4156699;28;20069;-68
2022/05/23 00:58:55;;;;;;;13.88;7.30;;;28.60;99.90;;;;;;4140949;28;20049;-68
2022/05/23 01:01:04;;;;;;;13.07;6.63;;;28.70;99.90;;;;;;4141843;28;20104;-69
2022/05/23 01:03:13;;;;;;;11.27;7.00;;;28.60;99.90;;;;;;4141623;28;20045;-68
2022/05/23 01:05:18;;;;;;;10.88;6.47;;;28.60;99.90;;;;;;4141091;28;20456;-68
2022/05/23 01:07:22;;;;;;;10.68;6.30;;;28.70;99.90;;;;;;4140434;28;20062;-68
2022/05/23 01:09:27;;;;;;;10.55;6.40;;;28.70;99.90;;;;;;4141013;28;20089;-67
2022/05/23 01:11:33;;;;;;;11.10;6.10;;;28.70;99.90;;;;;;4140991;28;20117;-68
2022/05/23 01:13:38;;;;;;;11.55;6.22;;;28.70;99.90;;;;;;4139262;28;20107;-68
2022/05/23 01:15:49;;;;;;;13.35;6.25;;;28.80;99.90;;;;;;4123755;28;20069;-68
2022/05/23 01:17:54;;;;;;;13.13;5.75;;;28.80;99.90;;;;;;4141542;28;20045;-68
2022/05/23 01:19:59;;;;;;;10.48;5.65;;;28.90;99.90;;;;;;4150293;28;20050;-67
2022/05/23 01:22:43;;;;;;;14.43;6.10;;;28.90;99.90;;;;;;4140104;28;20053;-68
2022/05/23 01:25:34;;;;;;;14.52;6.10;;;29.10;99.90;;;;;;4138146;28;20555;-67
2022/05/23 01:27:39;;;;;;;11.82;6.15;;;29.20;99.90;;;;;;4126341;28;20050;-68
2022/05/23 01:29:44;;;;;;;12.30;5.80;;;29.30;99.90;;;;;;4157068;28;20123;-68
2022/05/23 01:31:49;;;;;;;8.13;5.20;;;29.40;99.90;;;;;;4157930;28;20049;-68
2022/05/23 01:34:00;;;;;;;8.38;4.90;;;29.50;99.90;;;;;;4151312;28;20064;-68
2022/05/23 01:36:07;;;;;;;11.90;5.32;;;29.60;99.90;;;;;;4139841;28;20132;-68
2022/05/23 01:38:12;;;;;;;9.80;5.65;;;29.60;99.90;;;;;;4143786;28;20475;-68
2022/05/23 01:40:37;;;;;;;10.88;5.85;;;29.60;99.90;;;;;;4157879;28;20049;-67
2022/05/23 01:42:46;;;;;;;10.73;5.68;;;29.60;99.90;;;;;;4158046;28;20128;-68
2022/05/23 01:44:51;;;;;;;11.18;5.50;;;29.60;99.90;;;;;;4144347;28;20060;-68
2022/05/23 01:46:56;;;;;;;10.50;5.32;;;29.70;99.90;;;;;;4140187;28;20049;-68
2022/05/23 01:49:08;;;;;;;11.73;5.30;;;29.80;99.90;;;;;;4149330;28;20053;-68
2022/05/23 01:51:14;;;;;;;11.82;5.78;;;29.80;99.90;;;;;;4140021;28;20133;-68
2022/05/23 01:53:19;;;;;;;9.20;5.30;;;29.80;99.90;;;;;;4144140;28;20947;-69
2022/05/23 01:55:36;;;;;;;9.57;5.45;;;29.80;99.90;;;;;;4139166;28;20065;-69
2022/05/23 01:57:59;;;;;;;10.80;5.47;;;29.80;99.90;;;;;;4155981;28;20057;-68
2022/05/23 02:02:25;;;;;;;11.18;5.35;;;29.70;99.90;;;;;;4140318;28;20697;-69
2022/05/23 02:04:30;;;;;;;12.05;5.30;;;29.80;99.90;;;;;;4142578;28;20153;-68
2022/05/23 02:06:38;;;;;;;10.80;5.63;;;29.80;99.90;;;;;;4123788;28;20635;-68
2022/05/23 02:08:56;;;;;;;11.13;5.35;;;29.90;99.90;;;;;;4144758;28;20053;-69
2022/05/23 02:11:09;;;;;;;10.35;5.55;;;30.00;99.90;;;;;;4144198;28;20049;-68
2022/05/23 02:13:14;;;;;;;13.65;5.25;;;30.00;99.90;;;;;;4139202;28;20173;-68
2022/05/23 02:15:19;;;;;;;11.23;6.10;;;30.00;99.90;;;;;;4155374;28;20562;-68
2022/05/23 02:17:38;;;;;;;19.75;6.30;;;30.00;99.90;;;;;;4140296;28;20050;-68
2022/05/23 02:19:44;;;;;;;12.88;6.18;;;30.10;99.90;;;;;;4149298;28;20099;-68
2022/05/23 02:21:59;;;;;;;11.80;5.72;;;30.20;99.90;;;;;;4156095;28;20053;-69
2022/05/23 02:24:03;;;;;;;11.75;6.10;;;30.30;99.90;;;;;;4144832;28;20049;-68
2022/05/23 02:26:09;;;;;;;12.73;5.38;;;30.30;99.90;;;;;;4151936;28;20632;-68
2022/05/23 02:28:28;;;;;;;9.52;5.50;;;30.30;99.90;;;;;;4141506;28;20111;-69
2022/05/23 02:30:33;;;;;;;9.82;5.30;;;30.40;99.90;;;;;;4141057;28;20441;-68
2022/05/23 02:32:45;;;;;;;9.48;5.82;;;30.40;99.90;;;;;;4139932;28;20061;-69
2022/05/23 02:34:50;;;;;;;13.93;6.10;;;30.40;99.90;;;;;;4148263;28;20053;-69
2022/05/23 02:36:55;;;;;;;12.30;6.03;;;30.50;99.90;;;;;;4141035;28;20050;-67
2022/05/23 02:39:16;;;;;;;12.40;5.90;;;30.60;99.90;;;;;;4143719;28;20057;-68
2022/05/23 02:41:28;;;;;;;12.37;5.83;;;30.60;99.90;;;;;;4155355;28;20044;-67
2022/05/23 02:43:33;;;;;;;8.52;4.88;;;30.60;99.90;;;;;;4156037;28;20053;-67
2022/05/23 02:45:41;;;;;;;9.90;5.20;;;30.60;99.90;;;;;;4155471;28;20574;-68
2022/05/23 02:47:47;;;;;;;10.40;5.68;;;30.60;99.90;;;;;;4140214;28;20090;-69
2022/05/23 02:49:52;;;;;;;15.48;5.75;;;30.70;99.90;;;;;;4123427;28;20050;-69
2022/05/23 02:52:09;;;;;;;10.93;5.30;;;30.80;99.90;;;;;;4156012;28;20095;-69
2022/05/23 02:54:44;;;;;;;13.27;5.30;;;30.80;99.90;;;;;;4137019;28;20561;-69
2022/05/23 02:56:50;;;;;;;11.38;5.90;;;30.80;99.90;;;;;;4148298;28;20084;-70
2022/05/23 02:58:57;;;;;;;11.93;5.72;;;30.90;99.90;;;;;;4140911;28;20057;-68
2022/05/23 03:01:02;;;;;;;10.68;5.40;;;31.00;99.90;;;;;;4156440;28;20772;-68
2022/05/23 03:03:10;;;;;;;12.00;5.63;;;31.10;99.90;;;;;;4155750;28;20519;-68
2022/05/23 03:05:19;;;;;;;11.35;6.05;;;31.10;99.90;;;;;;4146931;28;20053;-68
2022/05/23 03:07:23;;;;;;;9.13;5.80;;;31.10;99.90;;;;;;4137956;28;20104;-68
2022/05/23 03:09:47;;;;;;;11.35;6.07;;;31.20;99.90;;;;;;4144713;28;20049;-68
2022/05/23 03:11:54;;;;;;;10.85;6.00;;;31.40;99.90;;;;;;4157072;28;20550;-68
2022/05/23 03:14:02;;;;;;;12.43;5.75;;;31.50;99.90;;;;;;4155649;28;20088;-67
2022/05/23 03:16:11;;;;;;;14.48;6.40;;;31.50;99.90;;;;;;4156023;28;20477;-68
2022/05/23 03:18:18;;;;;;;10.73;5.57;;;31.60;99.90;;;;;;4138704;28;20077;-68
2022/05/23 03:20:27;;;;;;;10.65;5.43;;;31.70;99.90;;;;;;4147804;28;20421;-68
2022/05/23 03:27:05;;;;;;;12.18;5.72;;;31.80;99.90;;;;;;4140524;28;20065;-68
2022/05/23 03:29:20;;;;;;;14.27;6.50;;;31.90;99.90;;;;;;4139615;28;20129;-68
2022/05/23 03:31:25;;;;;;;10.27;5.43;;;31.90;99.90;;;;;;4154583;28;20053;-68
2022/05/23 03:33:30;;;;;;;12.57;6.47;;;31.90;99.90;;;;;;4155677;28;20057;-68
2022/05/23 03:35:35;;;;;;;16.02;6.80;;;31.90;99.90;;;;;;4151467;28;20767;-68
2022/05/23 03:37:40;;;;;;;13.10;6.00;;;31.90;99.90;;;;;;4138031;28;20054;-68
2022/05/23 03:39:45;;;;;;;10.45;6.00;;;31.90;99.90;;;;;;4140716;28;20129;-67
2022/05/23 03:41:54;;;;;;;12.07;6.00;;;32.00;99.90;;;;;;4157125;28;20053;-68
2022/05/23 03:43:58;;;;;;;14.60;6.57;;;32.00;99.90;;;;;;4142399;28;20066;-68
2022/05/23 03:46:07;;;;;;;14.32;6.60;;;31.90;99.90;;;;;;4149746;28;20060;-68
2022/05/23 03:48:13;;;;;;;12.13;5.80;;;32.00;99.90;;;;;;4144959;28;20045;-68
2022/05/23 03:50:18;;;;;;;11.52;5.82;;;32.00;99.90;;;;;;4142038;28;20058;-68
2022/05/23 03:52:23;;;;;;;12.57;5.75;;;32.00;99.90;;;;;;4158207;28;20047;-68
2022/05/23 03:54:27;;;;;;;8.60;5.60;;;32.10;99.90;;;;;;4141850;28;20064;-67
2022/05/23 03:56:33;;;;;;;13.25;5.88;;;32.10;99.90;;;;;;4156114;28;20049;-68
2022/05/23 03:58:37;;;;;;;11.50;5.90;;;32.20;99.90;;;;;;4126827;28;20046;-67
2022/05/23 04:01:13;;;;;;;12.35;5.53;;;32.20;99.90;;;;;;4149381;28;20922;-67
2022/05/23 04:03:22;;;;;;;11.95;5.88;;;32.20;99.90;;;;;;4158467;28;20057;-68
2022/05/23 04:05:26;;;;;;;12.90;5.85;;;32.20;99.90;;;;;;4157025;28;20045;-68
2022/05/23 04:07:31;;;;;;;10.70;5.65;;;32.20;99.90;;;;;;4141669;28;20073;-69
2022/05/23 04:09:43;;;;;;;13.25;6.78;;;32.30;99.90;;;;;;4136830;28;20076;-69
2022/05/23 04:11:48;;;;;;;14.07;5.50;;;32.40;99.90;;;;;;4156202;28;20061;-69
2022/05/23 04:13:54;;;;;;;14.77;5.00;;;32.50;99.90;;;;;;4140134;28;20057;-69
2022/05/23 04:16:01;;;;;;;11.90;4.85;;;32.50;99.90;;;;;;4122641;28;20976;-69
2022/05/23 04:18:06;;;;;;;9.25;5.43;;;32.50;99.90;;;;;;4121853;28;20165;-68
2022/05/23 04:20:13;;;;;;;11.10;5.20;;;32.60;99.90;;;;;;4123890;28;20081;-69
2022/05/23 04:22:27;;;;;;;9.50;4.97;;;32.70;99.70;;;;;;4122676;28;20101;-68
2022/05/23 04:24:37;;;;;;;13.18;5.82;;;32.70;99.40;;;;;;4139881;28;20091;-69
2022/05/23 04:26:42;;;;;;;13.77;5.38;;;32.80;98.90;;;;;;4132229;28;20752;-69
2022/05/23 04:28:55;;;;;;;10.02;5.60;;;32.80;99.10;;;;;;4124227;28;20132;-68
2022/05/23 04:31:00;;;;;;;12.50;5.13;;;32.80;99.30;;;;;;4143579;28;20591;-68
2022/05/23 04:35:38;;;;;;;9.23;5.10;;;32.80;98.70;;;;;;4152339;28;20104;-69
2022/05/23 04:37:45;;;;;;;12.07;5.03;;;32.70;98.50;;;;;;4127438;28;20150;-68
2022/05/23 04:39:51;;;;;;;14.55;5.65;;;32.70;98.90;;;;;;4130058;28;20046;-69
2022/05/23 04:41:55;;;;;;;13.15;5.10;;;32.70;99.30;;;;;;4145940;28;20046;-69
2022/05/23 04:44:00;;;;;;;12.32;5.55;;;32.90;99.10;;;;;;4133369;28;20454;-68
2022/05/23 04:46:05;;;;;;;12.30;5.55;;;33.00;98.90;;;;;;4139646;28;20054;-69
2022/05/23 04:50:42;;;;;;;11.20;5.05;;;33.10;98.50;;;;;;4139736;28;20096;-69
2022/05/23 04:52:47;;;;;;;11.13;5.05;;;33.10;98.50;;;;;;4140347;28;20820;-69
2022/05/23 04:55:05;;;;;;;14.70;4.93;;;33.20;98.80;;;;;;4133893;28;20057;-70
2022/05/23 04:57:15;;;;;;;8.38;4.75;;;33.40;98.30;;;;;;4104837;28;20082;-69
2022/05/23 04:59:20;;;;;;;9.68;4.63;;;33.50;98.20;;;;;;4116020;28;20051;-69
2022/05/23 05:01:25;;;;;;;11.55;5.18;;;33.60;97.90;;;;;;4157800;28;20091;-69
2022/05/23 05:03:31;;;;;;;9.55;5.22;;;33.80;97.80;;;;;;4119984;28;20145;-68
2022/05/23 05:05:35;;;;;;;14.38;5.45;;;33.90;98.00;;;;;;4137277;28;20134;-69
2022/05/23 05:07:41;;;;;;;14.15;5.03;;;33.90;97.40;;;;;;4132378;28;20099;-69
2022/05/23 05:09:45;;;;;;;9.13;5.13;;;33.80;97.60;;;;;;4148031;28;20050;-69
2022/05/23 05:11:52;;;;;;;11.40;4.82;;;33.90;98.00;;;;;;4139664;28;20452;-69
2022/05/23 05:14:02;;;;;;;13.48;4.90;;;34.00;97.40;;;;;;4116814;28;20092;-69
2022/05/23 05:16:10;;;;;;;14.00;5.07;;;33.90;97.10;;;;;;4138494;28;20045;-69
2022/05/23 05:18:15;;;;;;;11.45;5.53;;;33.80;97.00;;;;;;4154933;28;20075;-73
2022/05/23 05:20:28;;;;;;;10.10;4.80;;;33.90;97.10;;;;;;4109447;28;20055;-68
2022/05/23 05:22:33;;;;;;;10.95;5.55;;;33.90;97.20;;;;;;4148461;28;20048;-68
2022/05/23 05:24:57;;;;;;;14.57;5.15;;;33.80;96.80;;;;;;4139182;28;20042;-68
2022/05/23 05:27:11;;;;;;;10.75;5.30;;;33.80;96.50;;;;;;4137594;28;20393;-68
2022/05/23 05:29:15;;;;;;;13.00;5.15;;;33.70;96.90;;;;;;4139177;28;20066;-68
2022/05/23 05:31:27;;;;;;;8.77;4.75;;;33.80;96.60;;;;;;4140719;28;20061;-67
2022/05/23 05:33:41;;;;;;;12.27;5.85;;;33.80;96.30;;;;;;4137189;28;20050;-68
2022/05/23 05:35:58;;;;;;;11.65;5.30;;;33.80;96.40;;;;;;4131822;28;20082;-68
2022/05/23 05:38:21;;;;;;;13.98;5.43;;;33.70;97.00;;;;;;4154387;28;20045;-68
2022/05/23 05:40:27;;;;;;;11.20;5.45;;;33.70;96.70;;;;;;4160953;28;20053;-68
2022/05/23 05:42:39;;;;;;;11.75;5.43;;;33.60;96.50;;;;;;4130149;28;20080;-71
2022/05/23 05:44:48;;;;;;;13.20;5.60;;;33.60;96.80;;;;;;4130070;28;20053;-72
2022/05/23 05:46:59;;;;;;;15.63;5.70;;;33.40;96.90;;;;;;4130176;28;20493;-70
2022/05/23 05:49:29;;;;;;;13.82;5.65;;;33.20;97.30;;;;;;4133392;28;20141;-70
2022/05/23 05:51:43;;;;;;;12.93;5.57;;;33.10;97.50;;;;;;4146354;28;20041;-71
2022/05/23 05:53:52;;;;;;;10.43;5.00;;;33.10;97.80;;;;;;4162253;28;20051;-71
2022/05/23 05:56:10;;;;;;;11.90;5.13;;;33.10;98.00;;;;;;4131777;28;20054;-70
2022/05/23 05:58:16;;;;;;;10.40;5.20;;;33.10;98.30;;;;;;4145705;28;20054;-71
2022/05/23 06:00:28;;;;;;;12.57;5.22;;;33.10;98.10;;;;;;4130838;28;20489;-72
2022/05/23 06:02:34;;;;;;;12.23;5.78;;;33.10;98.10;;;;;;4145937;28;20527;-71
2022/05/23 06:04:39;;;;;;;12.52;5.63;;;33.20;97.70;;;;;;4178657;28;20569;-71
2022/05/23 06:11:41;;;;;;;13.60;5.43;;;33.20;97.80;;;;;;4131771;28;20060;-71
2022/05/23 06:13:56;;;;;;;12.50;5.43;;;33.20;97.60;;;;;;4130604;28;20081;-71
2022/05/23 06:16:20;;;;;;;14.18;5.35;;;33.30;97.90;;;;;;4129467;28;20065;-70
2022/05/23 06:18:32;;;;;;;15.55;5.50;;;33.40;97.40;;;;;;4145429;28;20096;-70
2022/05/23 06:20:37;;;;;;;10.60;5.32;;;33.40;97.30;;;;;;4129389;28;20051;-71
2022/05/23 06:22:42;;;;;;;14.07;5.65;;;33.50;97.20;;;;;;4113644;28;20051;-71
2022/05/23 06:24:50;;;;;;;13.43;5.15;;;33.50;96.90;;;;;;4129155;28;20085;-71
2022/05/23 06:26:54;;;;;;;14.55;5.47;;;33.40;96.90;;;;;;4128513;28;20074;-72
2022/05/23 06:29:06;;;;;;;13.20;5.35;;;33.50;96.90;;;;;;4129801;28;20129;-71
2022/05/23 06:31:11;;;;;;;14.65;5.20;;;33.40;97.00;;;;;;4129136;28;20070;-70
2022/05/23 06:33:16;;;;;;;12.18;5.32;;;33.50;97.20;;;;;;4129033;28;20609;-71
2022/05/23 06:35:25;;;;;;;15.00;5.40;;;33.50;97.00;;;;;;4146327;28;20061;-71
2022/05/23 06:37:34;;;;;;;13.05;5.38;;;33.50;96.90;;;;;;4146812;28;20057;-71
2022/05/23 06:39:52;;;;;;;12.75;5.38;;;33.50;96.70;;;;;;4148147;28;20050;-71
2022/05/23 06:42:16;;;;;;;13.05;5.25;;;33.40;97.30;;;;;;4145814;28;20049;-70
2022/05/23 06:44:33;;;;;;;12.95;5.63;;;33.40;97.30;;;;;;4145420;28;20081;-70
2022/05/23 06:46:58;;;;;;;14.20;5.90;;;33.40;97.40;;;;;;4158784;28;20050;-71
2022/05/23 06:49:15;;;;;;;14.73;5.82;;;33.50;97.40;;;;;;4143569;28;20087;-71
2022/05/23 06:51:40;;;;;;;13.93;5.80;;;33.60;96.90;;;;;;4129422;28;20096;-71
2022/05/23 06:53:45;;;;;;;11.77;5.53;;;33.60;96.80;;;;;;4113076;28;20493;-70
2022/05/23 06:55:58;;;;;;;16.88;6.10;;;33.70;96.90;;;;;;4128928;28;20517;-71
2022/05/23 06:58:03;;;;;;;16.85;5.53;;;33.80;96.70;;;;;;4146834;28;20045;-70
2022/05/23 07:00:09;;;;;;;11.32;5.13;;;33.90;96.50;;;;;;4109960;28;20057;-70
2022/05/23 07:02:16;;;;;;;13.30;5.22;;;33.90;96.50;;;;;;4161561;28;20063;-70
2022/05/23 07:14:13;;;;;;;13.75;5.30;;;33.80;96.20;;;;;;4146736;28;20077;-71
2022/05/23 07:16:18;;;;;;;12.25;5.50;;;33.80;96.30;;;;;;4145256;28;20045;-71
2022/05/23 07:18:26;;;;;;;14.55;6.18;;;33.80;96.80;;;;;;4160938;28;20042;-70
2022/05/23 07:20:31;;;;;;;12.60;5.60;;;33.80;96.20;;;;;;4146914;28;20038;-72
2022/05/23 07:22:47;;;;;;;12.68;5.72;;;33.70;96.20;;;;;;4149499;28;20049;-71
2022/05/23 07:24:53;;;;;;;15.32;5.55;;;33.70;95.90;;;;;;4148081;28;20077;-74
2022/05/23 07:27:00;;;;;;;16.48;6.10;;;33.80;96.00;;;;;;4148305;28;20485;-72
2022/05/23 07:29:05;;;;;;;17.73;5.78;;;33.80;96.00;;;;;;4132639;28;20046;-71
2022/05/23 07:31:11;;;;;;;15.50;5.90;;;33.80;96.10;;;;;;4132255;28;20054;-71
2022/05/23 07:33:16;;;;;;;16.35;5.60;;;33.80;95.90;;;;;;4147778;28;20058;-73
2022/05/23 07:35:33;;;;;;;11.55;5.30;;;33.80;96.00;;;;;;4149991;28;20603;-71
2022/05/23 07:37:38;;;;;;;17.35;5.35;;;34.00;96.00;;;;;;4148125;28;20054;-71
2022/05/23 07:39:43;;;;;;;12.07;5.45;;;34.00;96.00;;;;;;4148455;28;20038;-71
2022/05/23 07:42:06;;;;;;;15.18;5.85;;;34.20;96.20;;;;;;4164532;28;20064;-71
2022/05/23 07:44:12;;;;;;;16.10;5.65;;;34.20;95.50;;;;;;4148275;28;20042;-72
2022/05/23 07:46:16;;;;;;;13.18;5.72;;;34.20;95.50;;;;;;4147919;28;20053;-72
2022/05/23 07:48:27;;;;;;;13.93;5.10;;;34.30;95.30;;;;;;4147817;28;20050;-70
2022/05/23 07:50:43;;;;;;;14.27;5.47;;;34.10;95.30;;;;;;4148171;28;20785;-72
2022/05/23 08:02:04;;;;;;;15.60;5.90;;;34.40;95.20;;;;;;4147665;28;20401;-72
2022/05/23 08:04:09;;;;;;;14.18;5.70;;;34.40;95.10;;;;;;4131786;28;20042;-73
2022/05/23 08:06:23;;;;;;;12.20;5.40;;;34.40;95.10;;;;;;4147255;28;20046;-73
2022/05/23 08:08:28;;;;;;;14.82;5.22;;;34.50;95.20;;;;;;4148133;28;20080;-72
2022/05/23 08:10:32;;;;;;;15.73;5.22;;;34.50;95.00;;;;;;4147571;28;20054;-73
2022/05/23 08:12:37;;;;;;;16.90;5.40;;;34.40;95.00;;;;;;4148198;28;20061;-73
2022/05/23 08:14:49;;;;;;;14.07;5.13;;;34.50;95.40;;;;;;4162663;28;20069;-73
2022/05/23 08:17:03;;;;;;;14.98;5.60;;;34.50;95.30;;;;;;4147516;28;20308;-72
2022/05/23 08:19:13;;;;;;;13.90;5.32;;;34.40;95.70;;;;;;4147545;28;20614;-72
2022/05/23 08:21:19;;;;;;;12.57;5.38;;;34.40;95.20;;;;;;4147521;28;20085;-72
2022/05/23 08:23:25;;;;;;;14.25;5.65;;;34.30;94.90;;;;;;4147583;28;20050;-73
2022/05/23 08:25:51;;;;;;;14.85;5.40;;;34.30;95.10;;;;;;4147215;28;20092;-73
2022/05/23 08:27:56;;;;;;;14.43;5.55;;;34.20;94.90;;;;;;4147477;28;20042;-73
2022/05/23 08:30:02;;;;;;;14.40;5.93;;;34.30;94.70;;;;;;4131585;28;20576;-71
2022/05/23 08:32:11;;;;;;;13.68;5.90;;;34.30;94.90;;;;;;4146572;28;20058;-72
2022/05/23 08:34:24;;;;;;;16.45;6.75;;;34.20;94.90;;;;;;4115935;28;20126;-71
2022/05/23 08:36:29;;;;;;;16.23;6.28;;;34.20;94.80;;;;;;4113463;28;20094;-72
2022/05/23 08:38:36;;;;;;;15.93;5.63;;;34.20;95.00;;;;;;4146293;28;20120;-72
2022/05/23 08:40:53;;;;;;;14.25;6.03;;;34.20;95.00;;;;;;4129492;28;20633;-71
2022/05/23 08:42:58;;;;;;;18.25;6.20;;;34.30;95.10;;;;;;4129795;28;20059;-72
2022/05/23 08:45:23;;;;;;;14.60;5.50;;;34.30;94.80;;;;;;4114935;28;20051;-71
2022/05/23 08:47:34;;;;;;;13.40;5.45;;;34.40;94.90;;;;;;4130010;28;20042;-71
2022/05/23 08:49:59;;;;;;;15.82;5.47;;;34.30;94.80;;;;;;4128710;28;20062;-72
2022/05/23 08:52:29;;;;;;;15.35;5.75;;;34.20;94.90;;;;;;4129132;28;20054;-72
2022/05/23 08:54:48;;;;;;;16.05;5.43;;;34.30;94.90;;;;;;4129898;28;20593;-72
2022/05/23 08:57:31;;;;;;;14.93;5.20;;;34.30;95.10;;;;;;4129534;28;20048;-72
2022/05/23 08:59:38;;;;;;;;;;;34.20;95.30;;;;;;4129943;28;20042;-72
2022/05/23 09:01:58;;;;;;;22.48;8.77;;;34.20;95.00;;;;;;4114475;28;19977;-73
2022/05/23 09:04:32;;;;;;;15.25;7.43;;;34.00;94.30;;;;;;4113534;28;20494;-72
2022/05/23 09:06:50;;;;;;;14.70;7.45;;;33.90;94.80;;;;;;4130541;28;20053;-71
2022/05/23 09:08:57;;;;;;;17.08;8.02;;;33.70;95.50;;;;;;4146095;28;20041;-73
2022/05/23 09:11:26;;;;;;;14.70;6.13;;;33.60;95.60;;;;;;4145790;28;20052;-73
2022/05/23 09:13:32;;;;;;;9.98;6.07;;;33.50;95.80;;;;;;4131338;28;20042;-73
2022/05/23 09:15:36;;;;;;;15.35;6.43;;;33.40;96.00;;;;;;4145707;28;20065;-74
2022/05/23 09:17:44;;;;;;;16.20;6.35;;;33.30;96.20;;;;;;4146139;28;20052;-74
2022/05/23 09:20:12;;;;;;;14.95;6.15;;;33.30;96.10;;;;;;4146385;28;20472;-74
2022/05/23 09:22:47;;;;;;;14.18;6.13;;;33.30;96.20;;;;;;4130713;28;20046;-73
2022/05/23 09:24:56;;;;;;;15.70;6.38;;;33.20;96.40;;;;;;4131281;28;20069;-71
2022/05/23 09:27:01;;;;;;;15.23;6.53;;;33.20;96.50;;;;;;4131475;28;20046;-72
2022/05/23 09:29:09;;;;;;;18.13;7.00;;;33.30;96.60;;;;;;4145314;28;20695;-72
2022/05/23 09:31:38;;;;;;;18.40;6.55;;;33.30;96.60;;;;;;4145621;28;20078;-72
2022/05/23 09:33:46;;;;;;;19.45;6.43;;;33.20;96.60;;;;;;4158006;28;20515;-72
2022/05/23 09:36:09;;;;;;;17.10;6.82;;;33.00;96.90;;;;;;4145474;28;20057;-72
2022/05/23 09:38:25;;;;;;;18.25;7.32;;;33.00;96.90;;;;;;3276407;28;10001009;-72
2022/05/23 09:40:38;;;;;;;17.83;7.32;;;32.90;97.10;;;;;;4143105;28;20122;-73
2022/05/23 09:49:45;;;;;;;12.75;6.10;;;32.80;97.00;;;;;;4159709;28;20060;-71
2022/05/23 09:52:03;;;;;;;16.60;7.13;;;32.70;96.80;;;;;;4143815;28;20493;-72
2022/05/23 09:54:10;;;;;;;17.70;7.03;;;32.60;96.90;;;;;;4124092;28;20050;-71
2022/05/23 09:56:32;;;;;;;14.32;6.30;;;32.70;96.80;;;;;;4143358;28;20054;-72
2022/05/23 09:58:38;;;;;;;13.20;5.80;;;32.60;96.90;;;;;;4144383;28;20046;-72
2022/05/23 10:00:55;;;;;;;11.98;5.38;;;32.60;97.00;;;;;;4140825;28;20060;-72
2022/05/23 10:03:02;;;;;;;16.70;6.20;;;32.50;97.00;;;;;;4143747;28;20136;-71
2022/05/23 10:05:20;;;;;;;15.23;5.95;;;32.50;96.90;;;;;;4159362;28;20738;-71
2022/05/23 10:07:34;;;;;;;15.13;5.53;;;32.50;97.20;;;;;;4158227;28;20068;-71
2022/05/23 10:09:38;;;;;;;15.13;5.30;;;32.40;97.30;;;;;;4159555;28;20064;-70
2022/05/23 10:12:06;;;;;;;19.20;7.13;;;32.40;97.50;;;;;;4155211;28;20045;-71
2022/05/23 10:14:16;;;;;;;17.23;6.45;;;32.40;97.50;;;;;;4159593;28;20547;-72
2022/05/23 10:16:33;;;;;;;13.68;5.97;;;32.40;97.40;;;;;;4159346;28;20722;-71
2022/05/23 10:18:51;;;;;;;13.75;5.45;;;32.40;97.40;;;;;;4132836;28;20472;-73
2022/05/23 10:20:57;;;;;;;15.70;5.70;;;32.40;97.60;;;;;;4144149;28;20057;-72
2022/05/23 10:23:22;;;;;;;17.50;5.28;;;32.30;97.60;;;;;;4143757;28;20064;-70
2022/05/23 10:25:36;;;;;;;11.93;5.88;;;32.30;97.60;;;;;;4143503;28;20194;-72
2022/05/23 10:27:47;;;;;;;13.40;5.72;;;32.30;97.60;;;;;;4132036;28;20112;-70
2022/05/23 10:30:05;;;;;;;14.20;5.88;;;32.30;97.70;;;;;;4104250;28;20133;-69
2022/05/23 10:32:12;;;;;;;12.10;5.68;;;32.30;97.70;;;;;;4175262;28;20055;-69
2022/05/23 10:34:39;;;;;;;18.13;6.80;;;32.30;97.80;;;;;;4143123;28;20485;-70
2022/05/23 10:36:47;;;;;;;15.98;6.40;;;32.20;97.80;;;;;;4158311;28;20045;-69
2022/05/23 10:44:04;;;;;;;16.13;5.53;;;32.10;98.10;;;;;;4146984;28;20046;-71
2022/05/23 10:46:13;;;;;;;16.17;5.65;;;32.10;98.20;;;;;;4143693;28;20061;-70
2022/05/23 10:48:24;;;;;;;15.93;6.28;;;32.10;98.30;;;;;;4160590;28;20524;-70
2022/05/23 10:50:41;;;;;;;20.67;6.28;;;32.00;98.20;;;;;;4151537;28;20093;-71
2022/05/23 10:52:55;;;;;;;34.10;23.70;;;32.00;98.20;;;;;;4144987;28;20050;-70
2022/05/23 10:55:12;;;;;;;68.45;46.60;;;31.80;98.40;;;;;;4159420;28;20128;-70
2022/05/23 10:57:43;;;;;;;78.95;54.22;;;31.60;98.80;;;;;;4162584;28;20045;-70
2022/05/23 10:59:53;;;;;;;81.78;56.55;;;31.50;99.00;;;;;;4145733;28;20109;-70
2022/05/23 11:02:04;;;;;;;74.60;53.25;;;31.20;99.50;;;;;;4161514;28;20045;-72
2022/05/23 11:04:30;;;;;;;73.45;52.83;;;31.10;99.80;;;;;;4159999;28;20080;-72
2022/05/23 11:06:41;;;;;;;79.95;52.45;;;31.10;99.80;;;;;;4163185;28;20121;-72
2022/05/23 11:09:02;;;;;;;73.15;51.15;;;31.00;99.90;;;;;;4153250;28;20046;-71
2022/05/23 11:11:32;;;;;;;73.57;50.50;;;30.90;99.90;;;;;;4145582;28;20085;-71
2022/05/23 11:13:45;;;;;;;69.72;48.90;;;30.70;99.90;;;;;;4163532;28;20033;-70
2022/05/23 11:16:02;;;;;;;64.22;44.28;;;30.70;99.90;;;;;;4137465;28;20499;-70
2022/05/23 11:18:13;;;;;;;62.17;41.45;;;30.70;99.90;;;;;;4162345;28;20037;-70
2022/05/23 11:20:24;;;;;;;57.03;39.72;;;30.80;99.90;;;;;;4148811;28;20050;-69
2022/05/23 11:22:34;;;;;;;50.72;35.03;;;30.80;99.90;;;;;;4146228;28;20061;-69
2022/05/23 11:24:55;;;;;;;45.92;32.90;;;30.60;99.90;;;;;;4114481;28;20051;-69
2022/05/23 11:34:14;;;;;;;40.30;26.20;;;30.30;99.90;;;;;;4153916;28;20231;-68
2022/05/23 11:36:28;;;;;;;39.80;25.38;;;30.40;99.90;;;;;;4155114;28;20073;-73
2022/05/23 11:38:32;;;;;;;38.45;25.33;;;30.50;99.90;;;;;;4145916;28;20068;-68
2022/05/23 11:40:40;;;;;;;38.85;25.17;;;30.50;99.90;;;;;;4146319;28;20052;-68
2022/05/23 11:43:05;;;;;;;36.88;25.10;;;30.60;99.90;;;;;;4147943;28;20041;-70
2022/05/23 11:47:50;;;;;;;44.25;25.95;;;30.50;99.90;;;;;;4150214;28;20511;-68
2022/05/23 11:50:01;;;;;;;39.88;24.05;;;30.50;99.90;;;;;;4146503;28;20034;-69
2022/05/23 11:52:06;;;;;;;31.35;20.85;;;30.50;99.90;;;;;;4156058;28;20054;-69
2022/05/23 11:54:24;;;;;;;30.40;20.70;;;30.40;99.90;;;;;;4130531;28;20050;-70
2022/05/23 11:56:36;;;;;;;35.22;20.80;;;30.20;99.90;;;;;;4116566;28;20047;-70
2022/05/23 11:58:49;;;;;;;33.55;19.67;;;30.20;99.90;;;;;;4124788;28;20042;-68
2022/05/23 12:01:15;;;;;;;32.97;18.77;;;30.00;99.90;;;;;;4130049;28;20042;-68
2022/05/23 12:03:24;;;;;;;39.50;20.55;;;30.20;99.90;;;;;;4145249;28;20823;-68
2022/05/23 12:05:31;;;;;;;34.15;21.55;;;30.10;99.90;;;;;;4129729;28;20571;-69
2022/05/23 12:07:41;;;;;;;30.83;20.58;;;30.00;99.90;;;;;;4127926;28;20101;-69
2022/05/23 12:09:45;;;;;;;32.58;21.00;;;30.10;99.90;;;;;;4145130;28;20104;-68
2022/05/23 12:11:51;;;;;;;35.10;21.38;;;30.10;99.90;;;;;;4145940;28;20514;-68
2022/05/23 12:14:00;;;;;;;33.92;22.00;;;30.20;99.90;;;;;;4143885;28;20053;-68